sensor_id;sensor_type;location;lat;lon;timestamp;pressure;altitude;pressure_sealevel;temperature;humidity
61906;BME280;47863;55.766;37.672;2023-04-30T00:00:14;100180.34;;;5.05;53.64
61906;BME280;47863;55.766;37.672;2023-04-30T00:02:39;100274.69;;;5.57;53.44
61906;BME280;47863;55.766;37.672;2023-04-30T00:05:05;100268.66;;;5.55;53.37
61906;BME280;47863;55.766;37.672;2023-04-30T00:07:31;100256.28;;;5.43;53.83
61906;BME280;47863;55.766;37.672;2023-04-30T00:09:57;100276.72;;;5.53;53.88
61906;BME280;47863;55.766;37.672;2023-04-30T00:12:23;100225.28;;;5.19;53.64
61906;BME280;47863;55.766;37.672;2023-04-30T00:14:49;100276.22;;;5.48;54.09
61906;BME280;47863;55.766;37.672;2023-04-30T00:17:14;100272.22;;;5.43;54.29
61906;BME280;47863;55.766;37.672;2023-04-30T00:19:41;100284.19;;;5.48;54.08
61906;BME280;47863;55.766;37.672;2023-04-30T00:22:07;100284.53;;;5.44;54.56
61906;BME280;47863;55.766;37.672;2023-04-30T00:24:33;100285.16;;;5.47;54.43
61906;BME280;47863;55.766;37.672;2023-04-30T00:26:59;100284.28;;;5.47;54.64
61906;BME280;47863;55.766;37.672;2023-04-30T00:29:24;100282.63;;;5.46;54.98
61906;BME280;47863;55.766;37.672;2023-04-30T00:31:50;100278.97;;;5.35;55.00
61906;BME280;47863;55.766;37.672;2023-04-30T00:34:16;100274.13;;;5.29;54.96
61906;BME280;47863;55.766;37.672;2023-04-30T00:36:41;100302.31;;;5.43;55.01
61906;BME280;47863;55.766;37.672;2023-04-30T00:39:07;100291.28;;;5.36;55.23
61906;BME280;47863;55.766;37.672;2023-04-30T00:41:34;100288.72;;;5.35;55.16
61906;BME280;47863;55.766;37.672;2023-04-30T00:44:00;100281.56;;;5.24;55.23
61906;BME280;47863;55.766;37.672;2023-04-30T00:46:27;100291.97;;;5.27;55.46
61906;BME280;47863;55.766;37.672;2023-04-30T00:48:53;100279.75;;;5.13;55.46
61906;BME280;47863;55.766;37.672;2023-04-30T00:51:19;100277.41;;;5.09;55.36
61906;BME280;47863;55.766;37.672;2023-04-30T00:53:45;100292.03;;;5.14;55.67
61906;BME280;47863;55.766;37.672;2023-04-30T00:56:12;100295.31;;;5.18;55.49
61906;BME280;47863;55.766;37.672;2023-04-30T00:58:40;100233.84;;;4.87;55.69
61906;BME280;47863;55.766;37.672;2023-04-30T01:01:06;100259.53;;;5.00;55.85
61906;BME280;47863;55.766;37.672;2023-04-30T01:03:32;100269.16;;;5.01;55.55
61906;BME280;47863;55.766;37.672;2023-04-30T01:06:00;100281.97;;;5.07;56.17
61906;BME280;47863;55.766;37.672;2023-04-30T01:08:28;100300.84;;;5.15;55.94
61906;BME280;47863;55.766;37.672;2023-04-30T01:13:54;100291.19;;;5.14;56.99
61906;BME280;47863;55.766;37.672;2023-04-30T01:16:26;100289.72;;;5.10;56.81
61906;BME280;47863;55.766;37.672;2023-04-30T01:19:09;100276.50;;;4.97;56.94
61906;BME280;47863;55.766;37.672;2023-04-30T01:21:44;100300.22;;;5.11;56.41
61906;BME280;47863;55.766;37.672;2023-04-30T01:29:26;100261.75;;;4.93;56.52
61906;BME280;47863;55.766;37.672;2023-04-30T01:31:53;100292.13;;;5.13;56.87
61906;BME280;47863;55.766;37.672;2023-04-30T01:34:19;100292.59;;;5.07;56.95
61906;BME280;47863;55.766;37.672;2023-04-30T01:43:22;100296.81;;;5.09;58.13
61906;BME280;47863;55.766;37.672;2023-04-30T01:48:29;100301.53;;;5.06;58.87
61906;BME280;47863;55.766;37.672;2023-04-30T01:51:18;100303.22;;;5.07;58.62
61906;BME280;47863;55.766;37.672;2023-04-30T01:53:45;100299.94;;;5.03;57.62
61906;BME280;47863;55.766;37.672;2023-04-30T01:56:17;100274.66;;;4.86;58.37
61906;BME280;47863;55.766;37.672;2023-04-30T01:58:47;100301.75;;;5.03;57.82
61906;BME280;47863;55.766;37.672;2023-04-30T02:01:29;100300.81;;;5.04;58.87
61906;BME280;47863;55.766;37.672;2023-04-30T02:03:56;100277.78;;;4.91;57.98
61906;BME280;47863;55.766;37.672;2023-04-30T02:06:23;100297.19;;;5.05;57.98
61906;BME280;47863;55.766;37.672;2023-04-30T02:08:53;100273.34;;;4.92;57.89
61906;BME280;47863;55.766;37.672;2023-04-30T02:11:20;100290.94;;;5.06;58.30
61906;BME280;47863;55.766;37.672;2023-04-30T02:13:46;100289.22;;;5.05;58.30
61906;BME280;47863;55.766;37.672;2023-04-30T02:16:12;100290.94;;;5.06;58.29
61906;BME280;47863;55.766;37.672;2023-04-30T02:18:37;100282.97;;;5.06;58.10
61906;BME280;47863;55.766;37.672;2023-04-30T02:21:03;100203.72;;;4.64;58.19
61906;BME280;47863;55.766;37.672;2023-04-30T02:23:28;100281.63;;;5.11;58.05
61906;BME280;47863;55.766;37.672;2023-04-30T02:25:54;100255.78;;;5.02;57.90
61906;BME280;47863;55.766;37.672;2023-04-30T02:28:20;100230.53;;;4.96;58.39
61906;BME280;47863;55.766;37.672;2023-04-30T02:30:45;100272.03;;;5.22;58.42
61906;BME280;47863;55.766;37.672;2023-04-30T02:33:11;100271.69;;;5.26;58.28
61906;BME280;47863;55.766;37.672;2023-04-30T02:35:37;100236.47;;;5.11;58.73
61906;BME280;47863;55.766;37.672;2023-04-30T02:38:05;100259.13;;;5.28;58.37
61906;BME280;47863;55.766;37.672;2023-04-30T02:40:31;100230.97;;;5.14;58.64
61906;BME280;47863;55.766;37.672;2023-04-30T02:42:56;100260.13;;;5.39;58.77
61906;BME280;47863;55.766;37.672;2023-04-30T02:45:22;100263.50;;;5.41;58.28
61906;BME280;47863;55.766;37.672;2023-04-30T02:47:47;100258.94;;;5.43;58.92
61906;BME280;47863;55.766;37.672;2023-04-30T02:50:13;100258.72;;;5.46;58.78
61906;BME280;47863;55.766;37.672;2023-04-30T02:52:39;100243.72;;;5.45;59.17
61906;BME280;47863;55.766;37.672;2023-04-30T02:55:05;100249.78;;;5.58;58.95
61906;BME280;47863;55.766;37.672;2023-04-30T02:57:31;100212.09;;;5.42;59.20
61906;BME280;47863;55.766;37.672;2023-04-30T02:59:56;100255.03;;;5.71;59.29
61906;BME280;47863;55.766;37.672;2023-04-30T03:02:22;100258.03;;;5.78;59.46
61906;BME280;47863;55.766;37.672;2023-04-30T03:04:48;100251.28;;;5.85;59.20
61906;BME280;47863;55.766;37.672;2023-04-30T03:07:14;100256.97;;;5.91;59.32
61906;BME280;47863;55.766;37.672;2023-04-30T03:09:40;100220.47;;;5.82;59.19
61906;BME280;47863;55.766;37.672;2023-04-30T03:12:05;100248.78;;;6.06;59.34
61906;BME280;47863;55.766;37.672;2023-04-30T03:14:31;100242.13;;;6.11;59.05
61906;BME280;47863;55.766;37.672;2023-04-30T03:16:57;100252.88;;;6.21;59.17
61906;BME280;47863;55.766;37.672;2023-04-30T03:19:22;100239.47;;;6.23;59.10
61906;BME280;47863;55.766;37.672;2023-04-30T03:21:53;100231.00;;;6.29;59.62
61906;BME280;47863;55.766;37.672;2023-04-30T03:24:19;100230.78;;;6.32;59.14
61906;BME280;47863;55.766;37.672;2023-04-30T03:26:45;100250.19;;;6.55;59.01
61906;BME280;47863;55.766;37.672;2023-04-30T03:29:11;100234.09;;;6.57;59.14
61906;BME280;47863;55.766;37.672;2023-04-30T03:31:37;100240.13;;;6.70;59.00
61906;BME280;47863;55.766;37.672;2023-04-30T03:34:03;100228.25;;;6.74;59.32
61906;BME280;47863;55.766;37.672;2023-04-30T03:36:28;100222.81;;;6.75;58.77
61906;BME280;47863;55.766;37.672;2023-04-30T03:38:54;100163.94;;;6.58;58.96
61906;BME280;47863;55.766;37.672;2023-04-30T03:41:19;100229.22;;;7.05;58.67
61906;BME280;47863;55.766;37.672;2023-04-30T03:43:45;100212.13;;;7.08;58.87
61906;BME280;47863;55.766;37.672;2023-04-30T03:46:11;100218.72;;;7.25;58.80
61906;BME280;47863;55.766;37.672;2023-04-30T03:48:36;100228.66;;;7.44;58.88
61906;BME280;47863;55.766;37.672;2023-04-30T03:51:02;100229.19;;;7.59;58.64
61906;BME280;47863;55.766;37.672;2023-04-30T03:53:28;100227.13;;;7.72;58.67
61906;BME280;47863;55.766;37.672;2023-04-30T03:55:54;100216.53;;;7.82;58.39
61906;BME280;47863;55.766;37.672;2023-04-30T03:58:20;100218.56;;;7.99;58.55
61906;BME280;47863;55.766;37.672;2023-04-30T04:00:46;100210.03;;;8.05;58.43
61906;BME280;47863;55.766;37.672;2023-04-30T04:03:13;100193.75;;;8.08;58.33
61906;BME280;47863;55.766;37.672;2023-04-30T04:05:39;100201.13;;;8.26;58.21
61906;BME280;47863;55.766;37.672;2023-04-30T04:08:05;100214.84;;;8.52;58.10
61906;BME280;47863;55.766;37.672;2023-04-30T04:10:33;100219.91;;;8.65;57.94
61906;BME280;47863;55.766;37.672;2023-04-30T04:12:59;100208.13;;;8.77;58.31
61906;BME280;47863;55.766;37.672;2023-04-30T04:15:25;100215.03;;;8.89;57.73
61906;BME280;47863;55.766;37.672;2023-04-30T04:17:50;100173.25;;;8.79;57.87
61906;BME280;47863;55.766;37.672;2023-04-30T04:20:16;100214.19;;;9.08;57.60
61906;BME280;47863;55.766;37.672;2023-04-30T04:22:42;100200.53;;;9.11;57.70
61906;BME280;47863;55.766;37.672;2023-04-30T04:25:08;100185.22;;;9.13;57.31
61906;BME280;47863;55.766;37.672;2023-04-30T04:27:35;100182.66;;;9.22;57.28
61906;BME280;47863;55.766;37.672;2023-04-30T04:30:02;100182.38;;;9.35;57.29
61906;BME280;47863;55.766;37.672;2023-04-30T04:32:30;100212.56;;;9.64;56.88
61906;BME280;47863;55.766;37.672;2023-04-30T04:34:57;100200.69;;;9.77;56.57
61906;BME280;47863;55.766;37.672;2023-04-30T04:37:23;100201.22;;;9.90;56.61
61906;BME280;47863;55.766;37.672;2023-04-30T04:39:49;100188.41;;;9.93;56.32
61906;BME280;47863;55.766;37.672;2023-04-30T04:42:15;100180.81;;;10.17;56.29
61906;BME280;47863;55.766;37.672;2023-04-30T04:44:41;100194.81;;;10.38;56.08
61906;BME280;47863;55.766;37.672;2023-04-30T04:47:08;100190.34;;;10.57;55.92
61906;BME280;47863;55.766;37.672;2023-04-30T04:49:34;100194.41;;;10.79;55.61
61906;BME280;47863;55.766;37.672;2023-04-30T04:52:00;100187.00;;;10.90;55.51
61906;BME280;47863;55.766;37.672;2023-04-30T04:54:26;100165.22;;;10.94;55.46
61906;BME280;47863;55.766;37.672;2023-04-30T04:56:52;100156.41;;;11.01;55.10
61906;BME280;47863;55.766;37.672;2023-04-30T04:59:18;100200.25;;;11.36;55.20
61906;BME280;47863;55.766;37.672;2023-04-30T05:01:43;100198.47;;;11.45;55.11
61906;BME280;47863;55.766;37.672;2023-04-30T05:04:09;100201.88;;;11.55;54.78
61906;BME280;47863;55.766;37.672;2023-04-30T05:06:35;100203.28;;;11.59;54.75
61906;BME280;47863;55.766;37.672;2023-04-30T05:09:01;100206.31;;;11.64;54.69
61906;BME280;47863;55.766;37.672;2023-04-30T05:11:27;100152.03;;;11.44;54.47
61906;BME280;47863;55.766;37.672;2023-04-30T05:13:53;100204.75;;;11.80;54.49
61906;BME280;47863;55.766;37.672;2023-04-30T05:16:18;100199.31;;;11.89;54.37
61906;BME280;47863;55.766;37.672;2023-04-30T05:18:44;100189.44;;;11.98;53.88
61906;BME280;47863;55.766;37.672;2023-04-30T05:21:09;100180.03;;;12.02;53.73
61906;BME280;47863;55.766;37.672;2023-04-30T05:23:35;100196.91;;;12.13;53.80
61906;BME280;47863;55.766;37.672;2023-04-30T05:26:01;100189.84;;;12.20;53.73
61906;BME280;47863;55.766;37.672;2023-04-30T05:28:27;100172.75;;;12.21;53.37
61906;BME280;47863;55.766;37.672;2023-04-30T05:30:53;100174.66;;;12.37;53.09
61906;BME280;47863;55.766;37.672;2023-04-30T05:33:18;100184.59;;;12.53;53.10
61906;BME280;47863;55.766;37.672;2023-04-30T05:35:44;100186.31;;;12.62;52.96
61906;BME280;47863;55.766;37.672;2023-04-30T05:38:10;100174.91;;;12.68;52.74
61906;BME280;47863;55.766;37.672;2023-04-30T05:40:35;100175.75;;;12.93;52.48
61906;BME280;47863;55.766;37.672;2023-04-30T05:43:01;100172.91;;;13.03;52.01
61906;BME280;47863;55.766;37.672;2023-04-30T05:45:27;100187.91;;;13.30;51.45
61906;BME280;47863;55.766;37.672;2023-04-30T05:47:52;100165.53;;;13.29;51.25
61906;BME280;47863;55.766;37.672;2023-04-30T05:50:18;100178.13;;;13.54;51.24
61906;BME280;47863;55.766;37.672;2023-04-30T05:52:44;100186.16;;;13.62;51.38
61906;BME280;47863;55.766;37.672;2023-04-30T05:55:09;100143.47;;;13.42;50.91
61906;BME280;47863;55.766;37.672;2023-04-30T05:57:35;100174.22;;;13.64;51.00
61906;BME280;47863;55.766;37.672;2023-04-30T06:00:02;100182.09;;;13.74;50.87
61906;BME280;47863;55.766;37.672;2023-04-30T06:02:31;100184.28;;;13.79;50.55
61906;BME280;47863;55.766;37.672;2023-04-30T06:04:57;100173.03;;;13.75;50.31
61906;BME280;47863;55.766;37.672;2023-04-30T06:07:22;100187.28;;;13.84;50.21
61906;BME280;47863;55.766;37.672;2023-04-30T06:09:48;100181.59;;;13.79;49.94
61906;BME280;47863;55.766;37.672;2023-04-30T06:12:13;100195.50;;;13.99;49.80
61906;BME280;47863;55.766;37.672;2023-04-30T06:14:39;100190.56;;;14.19;49.72
61906;BME280;47863;55.766;37.672;2023-04-30T06:17:09;100192.13;;;14.44;49.26
61906;BME280;47863;55.766;37.672;2023-04-30T06:19:34;100195.41;;;14.63;49.04
61906;BME280;47863;55.766;37.672;2023-04-30T06:22:00;100191.72;;;14.87;48.78
61906;BME280;47863;55.766;37.672;2023-04-30T06:24:25;100204.47;;;15.16;48.32
61906;BME280;47863;55.766;37.672;2023-04-30T06:26:51;100194.97;;;15.43;48.09
61906;BME280;47863;55.766;37.672;2023-04-30T06:29:17;100193.28;;;15.80;47.66
61906;BME280;47863;55.766;37.672;2023-04-30T06:31:43;100190.31;;;16.20;46.81
61906;BME280;47863;55.766;37.672;2023-04-30T06:34:08;100183.31;;;16.62;46.10
61906;BME280;47863;55.766;37.672;2023-04-30T06:36:34;100194.72;;;16.94;45.13
61906;BME280;47863;55.766;37.672;2023-04-30T06:38:59;100180.31;;;17.36;44.99
61906;BME280;47863;55.766;37.672;2023-04-30T06:41:25;100187.16;;;17.89;44.82
61906;BME280;47863;55.766;37.672;2023-04-30T06:43:51;100182.81;;;18.29;44.48
61906;BME280;47863;55.766;37.672;2023-04-30T06:46:16;100183.56;;;18.71;43.87
61906;BME280;47863;55.766;37.672;2023-04-30T06:48:42;100175.50;;;19.11;43.21
61906;BME280;47863;55.766;37.672;2023-04-30T06:51:07;100165.09;;;19.41;42.65
61906;BME280;47863;55.766;37.672;2023-04-30T06:53:33;100139.16;;;19.59;41.85
61906;BME280;47863;55.766;37.672;2023-04-30T06:55:59;100172.94;;;20.03;41.48
61906;BME280;47863;55.766;37.672;2023-04-30T06:58:25;100155.34;;;20.12;40.40
61906;BME280;47863;55.766;37.672;2023-04-30T07:00:50;100163.38;;;20.39;40.32
61906;BME280;47863;55.766;37.672;2023-04-30T07:03:16;100165.34;;;20.70;39.30
61906;BME280;47863;55.766;37.672;2023-04-30T07:05:42;100156.56;;;21.00;38.80
61906;BME280;47863;55.766;37.672;2023-04-30T07:08:08;100120.59;;;21.16;38.29
61906;BME280;47863;55.766;37.672;2023-04-30T07:10:33;100133.53;;;21.53;37.52
61906;BME280;47863;55.766;37.672;2023-04-30T07:12:59;100137.78;;;21.86;37.51
61906;BME280;47863;55.766;37.672;2023-04-30T07:15:25;100136.59;;;22.00;36.96
61906;BME280;47863;55.766;37.672;2023-04-30T07:17:50;100148.53;;;21.99;36.81
61906;BME280;47863;55.766;37.672;2023-04-30T07:20:16;100145.00;;;21.80;35.79
61906;BME280;47863;55.766;37.672;2023-04-30T07:22:42;100115.09;;;21.48;35.54
61906;BME280;47863;55.766;37.672;2023-04-30T07:25:11;100126.63;;;21.25;35.84
61906;BME280;47863;55.766;37.672;2023-04-30T07:27:37;100131.03;;;21.01;35.62
61906;BME280;47863;55.766;37.672;2023-04-30T07:30:04;100132.13;;;20.55;34.54
61906;BME280;47863;55.766;37.672;2023-04-30T07:32:33;100118.78;;;20.47;35.10
61906;BME280;47863;55.766;37.672;2023-04-30T07:34:59;100112.50;;;20.46;35.15
61906;BME280;47863;55.766;37.672;2023-04-30T07:37:24;100097.13;;;20.27;34.70
61906;BME280;47863;55.766;37.672;2023-04-30T07:39:50;100044.56;;;19.94;34.72
61906;BME280;47863;55.766;37.672;2023-04-30T07:42:16;100082.94;;;20.18;34.73
61906;BME280;47863;55.766;37.672;2023-04-30T07:44:41;100087.53;;;20.24;34.69
61906;BME280;47863;55.766;37.672;2023-04-30T07:47:07;100069.13;;;20.19;34.50
61906;BME280;47863;55.766;37.672;2023-04-30T07:49:33;100089.97;;;20.32;34.59
61906;BME280;47863;55.766;37.672;2023-04-30T07:51:59;100051.63;;;20.09;34.24
61906;BME280;47863;55.766;37.672;2023-04-30T07:54:26;100062.28;;;20.04;34.14
61906;BME280;47863;55.766;37.672;2023-04-30T07:56:52;100051.34;;;19.72;34.31
61906;BME280;47863;55.766;37.672;2023-04-30T07:59:17;100028.06;;;19.24;34.57
61906;BME280;47863;55.766;37.672;2023-04-30T08:01:43;100045.84;;;19.00;34.76
61906;BME280;47863;55.766;37.672;2023-04-30T08:04:09;100045.38;;;18.63;34.89
61906;BME280;47863;55.766;37.672;2023-04-30T08:06:35;100042.19;;;18.26;35.23
61906;BME280;47863;55.766;37.672;2023-04-30T08:09:01;100013.53;;;17.83;35.35
61906;BME280;47863;55.766;37.672;2023-04-30T08:11:27;100035.84;;;17.86;35.72
61906;BME280;47863;55.766;37.672;2023-04-30T08:13:52;100041.09;;;17.59;35.50
61906;BME280;47863;55.766;37.672;2023-04-30T08:16:18;100030.31;;;17.31;35.57
61906;BME280;47863;55.766;37.672;2023-04-30T08:18:44;100018.56;;;17.10;35.63
61906;BME280;47863;55.766;37.672;2023-04-30T08:21:14;100003.47;;;16.73;34.67
61906;BME280;47863;55.766;37.672;2023-04-30T08:23:40;99946.81;;;16.15;35.79
61906;BME280;47863;55.766;37.672;2023-04-30T08:26:06;100000.63;;;16.31;35.99
61906;BME280;47863;55.766;37.672;2023-04-30T08:28:31;99999.00;;;16.15;36.09
61906;BME280;47863;55.766;37.672;2023-04-30T08:30:57;99986.00;;;16.04;36.14
61906;BME280;47863;55.766;37.672;2023-04-30T08:33:23;99989.66;;;15.96;36.29
61906;BME280;47863;55.766;37.672;2023-04-30T08:35:48;99942.97;;;15.66;36.46
61906;BME280;47863;55.766;37.672;2023-04-30T08:38:14;99983.59;;;15.94;36.36
61906;BME280;47863;55.766;37.672;2023-04-30T08:40:39;99969.47;;;15.92;36.17
61906;BME280;47863;55.766;37.672;2023-04-30T08:43:07;99933.47;;;15.70;36.23
61906;BME280;47863;55.766;37.672;2023-04-30T08:45:34;99977.75;;;15.91;36.31
61906;BME280;47863;55.766;37.672;2023-04-30T08:48:03;99977.03;;;15.82;36.59
61906;BME280;47863;55.766;37.672;2023-04-30T08:50:32;99967.69;;;15.70;36.49
61906;BME280;47863;55.766;37.672;2023-04-30T08:53:00;99935.19;;;15.41;36.68
61906;BME280;47863;55.766;37.672;2023-04-30T08:55:26;99963.56;;;15.52;36.70
61906;BME280;47863;55.766;37.672;2023-04-30T08:57:52;99958.63;;;15.56;36.71
61906;BME280;47863;55.766;37.672;2023-04-30T09:00:18;99950.50;;;15.56;36.87
61906;BME280;47863;55.766;37.672;2023-04-30T09:02:44;99924.97;;;15.37;36.88
61906;BME280;47863;55.766;37.672;2023-04-30T09:05:13;99944.22;;;15.34;37.10
61906;BME280;47863;55.766;37.672;2023-04-30T09:07:43;99940.63;;;15.26;37.12
61906;BME280;47863;55.766;37.672;2023-04-30T09:10:20;99927.31;;;15.25;37.29
61906;BME280;47863;55.766;37.672;2023-04-30T09:13:00;99923.41;;;15.27;37.43
61906;BME280;47863;55.766;37.672;2023-04-30T09:15:26;99925.38;;;15.19;37.42
61906;BME280;47863;55.766;37.672;2023-04-30T09:18:13;99908.34;;;15.03;37.50
61906;BME280;47863;55.766;37.672;2023-04-30T09:21:00;99903.06;;;14.95;37.12
61906;BME280;47863;55.766;37.672;2023-04-30T09:23:28;99909.47;;;14.94;37.59
61906;BME280;47863;55.766;37.672;2023-04-30T09:25:54;99898.84;;;14.93;37.47
61906;BME280;47863;55.766;37.672;2023-04-30T09:28:20;99891.03;;;14.83;37.48
61906;BME280;47863;55.766;37.672;2023-04-30T09:30:49;99891.97;;;14.90;37.44
61906;BME280;47863;55.766;37.672;2023-04-30T09:33:15;99902.50;;;15.00;37.23
61906;BME280;47863;55.766;37.672;2023-04-30T09:35:41;99899.97;;;15.13;37.05
61906;BME280;47863;55.766;37.672;2023-04-30T09:38:07;99893.91;;;15.26;37.21
61906;BME280;47863;55.766;37.672;2023-04-30T09:40:37;99886.91;;;15.32;37.13
61906;BME280;47863;55.766;37.672;2023-04-30T09:43:04;99888.38;;;15.34;37.14
61906;BME280;47863;55.766;37.672;2023-04-30T09:45:46;99883.38;;;15.31;36.81
61906;BME280;47863;55.766;37.672;2023-04-30T09:48:14;99880.22;;;15.27;37.18
61906;BME280;47863;55.766;37.672;2023-04-30T09:50:40;99866.19;;;15.17;37.16
61906;BME280;47863;55.766;37.672;2023-04-30T09:53:11;99863.88;;;15.14;36.92
61906;BME280;47863;55.766;37.672;2023-04-30T09:55:44;99857.28;;;15.17;37.07
61906;BME280;47863;55.766;37.672;2023-04-30T09:58:11;99848.13;;;15.18;37.02
61906;BME280;47863;55.766;37.672;2023-04-30T10:00:37;99851.66;;;15.18;37.06
61906;BME280;47863;55.766;37.672;2023-04-30T10:03:06;99849.59;;;15.20;37.07
61906;BME280;47863;55.766;37.672;2023-04-30T10:08:11;99856.63;;;15.15;37.19
61906;BME280;47863;55.766;37.672;2023-04-30T10:10:39;99852.81;;;15.09;37.35
61906;BME280;47863;55.766;37.672;2023-04-30T10:13:11;99845.56;;;14.95;37.54
61906;BME280;47863;55.766;37.672;2023-04-30T10:15:46;99816.69;;;14.74;37.04
61906;BME280;47863;55.766;37.672;2023-04-30T10:18:17;99853.28;;;14.83;37.39
61906;BME280;47863;55.766;37.672;2023-04-30T10:20:46;99842.19;;;14.71;37.54
61906;BME280;47863;55.766;37.672;2023-04-30T10:23:13;99833.91;;;14.58;37.62
61906;BME280;47863;55.766;37.672;2023-04-30T10:25:40;99859.72;;;14.67;37.75
61906;BME280;47863;55.766;37.672;2023-04-30T10:28:07;99871.16;;;14.69;37.72
61906;BME280;47863;55.766;37.672;2023-04-30T10:30:34;99865.13;;;14.67;37.29
61906;BME280;47863;55.766;37.672;2023-04-30T10:35:42;99869.41;;;14.61;37.49
61906;BME280;47863;55.766;37.672;2023-04-30T10:38:16;99847.50;;;14.41;37.45
61906;BME280;47863;55.766;37.672;2023-04-30T10:40:46;99847.16;;;14.44;37.29
61906;BME280;47863;55.766;37.672;2023-04-30T10:43:12;99864.84;;;14.62;37.36
61906;BME280;47863;55.766;37.672;2023-04-30T10:45:42;99868.00;;;14.80;37.26
61906;BME280;47863;55.766;37.672;2023-04-30T10:48:08;99857.94;;;15.04;37.04
61906;BME280;47863;55.766;37.672;2023-04-30T10:50:44;99864.41;;;15.24;36.50
61906;BME280;47863;55.766;37.672;2023-04-30T10:53:17;99864.09;;;15.34;36.50
61906;BME280;47863;55.766;37.672;2023-04-30T10:58:30;99849.59;;;15.35;36.34
61906;BME280;47863;55.766;37.672;2023-04-30T11:03:32;99829.34;;;15.24;36.53
61906;BME280;47863;55.766;37.672;2023-04-30T11:06:00;99862.78;;;15.45;36.49
61906;BME280;47863;55.766;37.672;2023-04-30T11:08:36;99836.69;;;15.16;36.02
61906;BME280;47863;55.766;37.672;2023-04-30T11:11:02;99860.97;;;15.31;36.65
61906;BME280;47863;55.766;37.672;2023-04-30T11:13:46;99865.25;;;15.25;36.46
61906;BME280;47863;55.766;37.672;2023-04-30T11:16:14;99848.31;;;15.16;36.51
61906;BME280;47863;55.766;37.672;2023-04-30T11:18:43;99849.72;;;15.12;36.82
61906;BME280;47863;55.766;37.672;2023-04-30T11:21:08;99839.41;;;15.16;37.00
61906;BME280;47863;55.766;37.672;2023-04-30T11:23:35;99827.06;;;15.28;36.76
61906;BME280;47863;55.766;37.672;2023-04-30T11:26:01;99817.00;;;15.37;36.79
61906;BME280;47863;55.766;37.672;2023-04-30T11:28:28;99815.09;;;15.52;36.69
61906;BME280;47863;55.766;37.672;2023-04-30T11:30:57;99806.66;;;15.62;36.31
61906;BME280;47863;55.766;37.672;2023-04-30T11:33:27;99795.38;;;15.73;36.35
61906;BME280;47863;55.766;37.672;2023-04-30T11:35:55;99786.78;;;15.91;36.35
61906;BME280;47863;55.766;37.672;2023-04-30T11:38:25;99780.25;;;16.07;36.13
61906;BME280;47863;55.766;37.672;2023-04-30T11:40:51;99776.63;;;16.21;35.95
61906;BME280;47863;55.766;37.672;2023-04-30T11:43:25;99738.53;;;16.16;35.97
61906;BME280;47863;55.766;37.672;2023-04-30T11:46:08;99772.41;;;16.47;35.98
61906;BME280;47863;55.766;37.672;2023-04-30T11:48:36;99771.53;;;16.40;35.95
61906;BME280;47863;55.766;37.672;2023-04-30T11:51:03;99781.44;;;16.33;35.99
61906;BME280;47863;55.766;37.672;2023-04-30T11:53:30;99765.75;;;16.15;36.35
61906;BME280;47863;55.766;37.672;2023-04-30T11:55:56;99767.09;;;15.97;36.66
61906;BME280;47863;55.766;37.672;2023-04-30T11:58:21;99739.41;;;15.67;36.71
61906;BME280;47863;55.766;37.672;2023-04-30T12:00:47;99726.13;;;15.44;36.87
61906;BME280;47863;55.766;37.672;2023-04-30T12:03:14;99736.94;;;15.44;37.03
61906;BME280;47863;55.766;37.672;2023-04-30T12:05:41;99762.38;;;15.56;37.11
61906;BME280;47863;55.766;37.672;2023-04-30T12:08:07;99761.53;;;15.56;37.00
61906;BME280;47863;55.766;37.672;2023-04-30T12:10:36;99751.31;;;15.51;37.20
61906;BME280;47863;55.766;37.672;2023-04-30T12:13:02;99746.91;;;15.43;37.16
61906;BME280;47863;55.766;37.672;2023-04-30T12:15:28;99719.03;;;15.15;37.05
61906;BME280;47863;55.766;37.672;2023-04-30T12:17:56;99664.25;;;14.71;36.87
61906;BME280;47863;55.766;37.672;2023-04-30T12:20:28;99715.88;;;14.90;37.01
61906;BME280;47863;55.766;37.672;2023-04-30T12:22:54;99736.66;;;14.96;37.18
61906;BME280;47863;55.766;37.672;2023-04-30T12:25:21;99742.72;;;14.83;37.23
61906;BME280;47863;55.766;37.672;2023-04-30T12:27:49;99736.63;;;14.74;37.27
61906;BME280;47863;55.766;37.672;2023-04-30T12:30:19;99745.66;;;14.66;37.22
61906;BME280;47863;55.766;37.672;2023-04-30T12:32:49;99739.56;;;14.58;37.32
61906;BME280;47863;55.766;37.672;2023-04-30T12:35:19;99737.47;;;14.45;37.26
61906;BME280;47863;55.766;37.672;2023-04-30T12:37:46;99740.09;;;14.38;37.46
61906;BME280;47863;55.766;37.672;2023-04-30T12:40:13;99725.44;;;14.11;37.73
61906;BME280;47863;55.766;37.672;2023-04-30T12:42:41;99745.59;;;14.00;37.64
61906;BME280;47863;55.766;37.672;2023-04-30T12:45:08;99756.06;;;13.95;37.80
61906;BME280;47863;55.766;37.672;2023-04-30T12:47:40;99690.63;;;13.42;37.76
61906;BME280;47863;55.766;37.672;2023-04-30T12:50:11;99753.91;;;13.76;37.96
61906;BME280;47863;55.766;37.672;2023-04-30T12:52:38;99746.63;;;13.61;38.22
61906;BME280;47863;55.766;37.672;2023-04-30T12:55:14;99736.06;;;13.37;38.29
61906;BME280;47863;55.766;37.672;2023-04-30T12:57:40;99752.69;;;13.40;38.36
61906;BME280;47863;55.766;37.672;2023-04-30T13:00:06;99753.56;;;13.33;38.70
61906;BME280;47863;55.766;37.672;2023-04-30T13:02:32;99759.00;;;13.24;38.58
61906;BME280;47863;55.766;37.672;2023-04-30T13:04:58;99755.16;;;13.19;38.72
61906;BME280;47863;55.766;37.672;2023-04-30T13:07:24;99750.16;;;13.16;38.72
61906;BME280;47863;55.766;37.672;2023-04-30T13:09:50;99742.16;;;13.07;38.79
61906;BME280;47863;55.766;37.672;2023-04-30T13:12:15;99747.63;;;13.14;38.51
61906;BME280;47863;55.766;37.672;2023-04-30T13:14:41;99732.06;;;13.09;38.69